Anacostia, District of Columbia
Current Conditions -  °F | °C
As of 8:52 AM on Monday 20 Oct 2014 (Local Time) from KDCA Reporting Station
Overcast Overcast  
Wind Chill: 51°   Ceiling: 25000
Heat Index: 51°   Visibility: 10mi
Dew Point: 43°   Wind: 8mph
Humidity: 74%   Direction: 200°SSW
Pressure: 30.15"   Gusts: NA
Location:  38.8618°N, 77.0026°W
Report Text: KDCA 201252Z 20007KT 10SM OVC250 11/06 A3015 RMK AO2 SLP208 T01060061
Loading
Personal Weather Stations






























Interactive Weather Map
Tropical Storm Tracking
New forecast layout! Learn more

10-Day Weather Forecast

Advertisements
Track Severe Weather on mobile